Time;durP1;ratioP1;P1;durP2;ratioP2;P2;SDS_P1;SDS_P2;PMS_P1;PMS_P2;Temp;Humidity;BMP_temperature;BMP_pressure;BME280_temperature;BME280_humidity;BME280_pressure;Samples;Min_cycle;Max_cycle;Signal;HPM_P1;HPM_P2
2020/12/11 00:02:08;;;;;;;;;;;2.50;99.90;;;;;;5034917;28;19913;-87
2020/12/11 00:04:36;;;;;;;;;;;2.50;99.90;;;;;;5034692;28;19917;-88
2020/12/11 00:07:02;;;;;;;;;;;2.60;99.90;;;;;;5034899;28;19975;-87
2020/12/11 00:09:27;;;;;;;;;;;2.60;99.90;;;;;;5034934;28;20379;-87
2020/12/11 00:11:54;;;;;;;;;;;2.50;99.90;;;;;;5034797;28;19944;-87
2020/12/11 00:14:22;;;;;;;;;;;2.50;99.90;;;;;;5034632;28;19913;-87
2020/12/11 00:16:47;;;;;;;;;;;2.60;99.90;;;;;;5034753;28;19909;-87
2020/12/11 00:19:12;;;;;;;;;;;2.50;99.90;;;;;;5034445;28;19963;-87
2020/12/11 00:21:41;;;;;;;;;;;2.50;99.90;;;;;;5034479;28;19963;-88
2020/12/11 00:24:07;;;;;;;;;;;2.60;99.90;;;;;;5034586;28;19956;-86
2020/12/11 00:26:32;;;;;;;;;;;2.60;99.90;;;;;;5034559;28;19909;-87
2020/12/11 00:28:58;;;;;;;;;;;2.60;99.90;;;;;;5035736;28;19916;-87
2020/12/11 00:31:26;;;;;;;;;;;2.60;99.90;;;;;;5034572;28;19910;-88
2020/12/11 00:33:53;;;;;;;;;;;2.60;99.90;;;;;;5034402;28;19986;-87
2020/12/11 00:36:18;;;;;;;;;;;2.50;99.90;;;;;;5035388;28;19941;-86
2020/12/11 00:38:44;;;;;;;;;;;2.60;99.90;;;;;;5035536;28;19909;-87
2020/12/11 00:41:10;;;;;;;;;;;2.50;99.90;;;;;;5034044;28;19972;-87
2020/12/11 00:43:38;;;;;;;;;;;2.50;99.90;;;;;;5034059;28;20004;-88
2020/12/11 00:46:08;;;;;;;;;;;2.50;99.90;;;;;;5034085;28;20368;-87
2020/12/11 00:48:34;;;;;;;;;;;2.50;99.90;;;;;;5033880;28;19940;-88
2020/12/11 00:51:00;;;;;;;;;;;2.50;99.90;;;;;;5034037;28;20018;-88
2020/12/11 00:53:30;;;;;;;;;;;2.50;99.90;;;;;;5034286;28;19909;-88
2020/12/11 00:55:56;;;;;;;;;;;2.50;99.90;;;;;;5034786;28;20280;-87
2020/12/11 00:58:22;;;;;;;;;;;2.50;99.90;;;;;;5033705;28;19920;-87
2020/12/11 01:00:47;;;;;;;;;;;2.50;99.90;;;;;;5033836;28;19920;-87
2020/12/11 01:03:15;;;;;;;;;;;2.50;99.90;;;;;;5033504;28;19914;-87
2020/12/11 01:05:41;;;;;;;;;;;2.50;99.90;;;;;;5033896;28;19909;-87
2020/12/11 01:08:09;;;;;;;;;;;2.50;99.90;;;;;;5033979;28;19916;-87
2020/12/11 01:10:36;;;;;;;;;;;2.50;99.90;;;;;;5033757;28;19913;-87
2020/12/11 01:13:04;;;;;;;;;;;2.50;99.90;;;;;;5033704;28;20013;-87
2020/12/11 01:15:32;;;;;;;;;;;2.50;99.90;;;;;;5033243;28;19956;-86
2020/12/11 01:17:58;;;;;;;;;;;2.50;99.90;;;;;;5033524;28;19916;-87
2020/12/11 01:20:23;;;;;;;;;;;2.50;99.90;;;;;;5033581;28;19995;-86
2020/12/11 01:22:50;;;;;;;;;;;2.50;99.90;;;;;;5033413;28;20450;-87
2020/12/11 01:25:17;;;;;;;;;;;2.50;99.90;;;;;;5033604;28;19917;-86
2020/12/11 01:27:47;;;;;;;;;;;2.40;99.90;;;;;;5033602;28;20372;-86
2020/12/11 01:30:13;;;;;;;;;;;2.40;99.90;;;;;;5033202;28;19917;-87
2020/12/11 01:32:38;;;;;;;;;;;2.40;99.90;;;;;;5033432;28;19909;-86
2020/12/11 01:35:04;;;;;;;;;;;2.40;99.90;;;;;;5033322;28;20281;-87
2020/12/11 01:37:29;;;;;;;;;;;2.40;99.90;;;;;;5033276;28;19913;-88
2020/12/11 01:39:57;;;;;;;;;;;2.40;99.90;;;;;;5033001;28;20415;-85
2020/12/11 01:42:25;;;;;;;;;;;2.50;99.90;;;;;;5033274;28;19913;-89
2020/12/11 01:44:51;;;;;;;;;;;2.40;99.90;;;;;;5033136;28;19955;-86
2020/12/11 01:47:20;;;;;;;;;;;2.40;99.90;;;;;;5034403;28;19932;-87
2020/12/11 01:49:49;;;;;;;;;;;2.30;99.90;;;;;;5033218;28;19996;-87
2020/12/11 01:52:17;;;;;;;;;;;2.30;99.90;;;;;;5033277;28;19959;-87
2020/12/11 01:54:43;;;;;;;;;;;2.30;99.90;;;;;;5034128;28;20005;-87
2020/12/11 01:57:28;;;;;;;;;;;2.30;99.90;;;;;;5032913;28;19916;-88
2020/12/11 01:59:54;;;;;;;;;;;2.30;99.90;;;;;;5032818;28;19913;-88
2020/12/11 02:02:24;;;;;;;;;;;2.30;99.90;;;;;;5033097;28;20379;-85
2020/12/11 02:04:49;;;;;;;;;;;2.30;99.90;;;;;;5033272;28;20314;-87
2020/12/11 02:07:17;;;;;;;;;;;2.30;99.90;;;;;;5032850;28;20004;-87
2020/12/11 02:09:43;;;;;;;;;;;2.30;99.90;;;;;;5032913;28;19916;-87
2020/12/11 02:12:08;;;;;;;;;;;2.30;99.90;;;;;;5032871;28;19913;-86
2020/12/11 02:14:34;;;;;;;;;;;2.30;99.90;;;;;;5033201;28;19909;-88
2020/12/11 02:17:03;;;;;;;;;;;2.30;99.90;;;;;;5032902;28;19909;-88
2020/12/11 02:19:34;;;;;;;;;;;2.20;99.90;;;;;;5032999;28;19947;-87
2020/12/11 02:22:03;;;;;;;;;;;2.30;99.90;;;;;;5033009;28;19963;-88
2020/12/11 02:24:29;;;;;;;;;;;2.30;99.90;;;;;;5032724;28;19909;-87
2020/12/11 02:26:58;;;;;;;;;;;2.30;99.90;;;;;;5032999;28;19909;-87
2020/12/11 02:29:24;;;;;;;;;;;2.20;99.90;;;;;;5035461;28;19909;-87
2020/12/11 02:31:50;;;;;;;;;;;2.20;99.90;;;;;;5036626;28;19916;-87
2020/12/11 02:34:15;;;;;;;;;;;2.20;99.90;;;;;;5036712;28;19909;-87
2020/12/11 02:36:41;;;;;;;;;;;2.20;99.90;;;;;;5036867;28;19964;-87
2020/12/11 02:39:08;;;;;;;;;;;2.10;99.90;;;;;;5036160;28;19909;-85
2020/12/11 02:41:34;;;;;;;;;;;2.00;99.90;;;;;;5036251;28;19921;-88
2020/12/11 02:44:02;;;;;;;;;;;2.00;99.90;;;;;;5036532;28;19916;-86
2020/12/11 02:46:28;;;;;;;;;;;2.00;99.90;;;;;;5036171;28;19909;-88
2020/12/11 02:48:53;;;;;;;;;;;2.00;99.90;;;;;;5037257;28;20327;-87
2020/12/11 02:51:19;;;;;;;;;;;1.90;99.90;;;;;;5036243;28;19909;-87
2020/12/11 02:53:49;;;;;;;;;;;1.90;99.90;;;;;;5036161;28;19915;-87
2020/12/11 02:56:23;;;;;;;;;;;1.80;99.90;;;;;;5034555;28;19909;-87
2020/12/11 02:58:49;;;;;;;;;;;1.80;99.90;;;;;;5036382;28;19916;-87
2020/12/11 03:01:15;;;;;;;;;;;1.80;99.90;;;;;;5036020;28;20432;-88
2020/12/11 03:03:41;;;;;;;;;;;1.80;99.90;;;;;;5036027;28;19944;-87
2020/12/11 03:06:07;;;;;;;;;;;1.80;99.90;;;;;;5035978;28;19996;-88
2020/12/11 03:08:32;;;;;;;;;;;1.80;99.90;;;;;;5036093;28;19913;-88
2020/12/11 03:10:58;;;;;;;;;;;1.80;99.90;;;;;;5036185;28;19917;-87
2020/12/11 03:13:23;;;;;;;;;;;1.70;99.90;;;;;;5035877;28;19910;-88
2020/12/11 03:15:51;;;;;;;;;;;1.70;99.90;;;;;;5035923;28;19948;-88
2020/12/11 03:18:17;;;;;;;;;;;1.70;99.90;;;;;;5035693;28;19909;-88
2020/12/11 03:20:42;;;;;;;;;;;1.70;99.90;;;;;;5035787;28;19917;-87
2020/12/11 03:23:13;;;;;;;;;;;1.70;99.90;;;;;;5035795;28;19909;-87
2020/12/11 03:25:43;;;;;;;;;;;1.70;99.90;;;;;;5035863;28;19944;-87
2020/12/11 03:28:09;;;;;;;;;;;1.70;99.90;;;;;;5036842;28;19916;-89
2020/12/11 03:30:34;;;;;;;;;;;1.60;99.90;;;;;;5035579;28;19909;-88
2020/12/11 03:33:00;;;;;;;;;;;1.60;99.90;;;;;;5035482;28;19931;-88
2020/12/11 03:35:28;;;;;;;;;;;1.60;99.90;;;;;;5035287;28;20273;-87
2020/12/11 03:37:54;;;;;;;;;;;1.60;99.90;;;;;;5035856;28;19909;-88
2020/12/11 03:40:19;;;;;;;;;;;1.50;99.90;;;;;;5034932;28;19921;-86
2020/12/11 03:42:45;;;;;;;;;;;1.50;99.90;;;;;;5035378;28;20280;-86
2020/12/11 03:45:13;;;;;;;;;;;1.60;99.90;;;;;;5035697;28;19966;-88
2020/12/11 03:47:40;;;;;;;;;;;1.50;99.90;;;;;;5035438;28;19931;-88
2020/12/11 03:50:08;;;;;;;;;;;1.50;99.90;;;;;;5035250;28;19924;-88
2020/12/11 03:52:33;;;;;;;;;;;1.50;99.90;;;;;;5035271;28;20344;-85
2020/12/11 03:54:59;;;;;;;;;;;1.50;99.90;;;;;;5035357;28;20163;-85
2020/12/11 03:57:24;;;;;;;;;;;1.50;99.90;;;;;;5034962;28;20012;-86
2020/12/11 03:59:52;;;;;;;;;;;1.50;99.90;;;;;;5034975;28;19939;-86
2020/12/11 04:02:18;;;;;;;;;;;1.50;99.90;;;;;;5034790;28;20288;-88
2020/12/11 04:04:43;;;;;;;;;;;1.40;99.90;;;;;;5035127;28;19916;-88
2020/12/11 04:07:12;;;;;;;;;;;1.40;99.90;;;;;;5034964;28;19964;-86
2020/12/11 04:09:37;;;;;;;;;;;1.40;99.90;;;;;;5035002;28;20268;-87
2020/12/11 04:12:06;;;;;;;;;;;1.30;99.90;;;;;;5034662;28;19909;-87
2020/12/11 04:14:31;;;;;;;;;;;1.30;99.90;;;;;;5034644;28;19913;-86
2020/12/11 04:16:59;;;;;;;;;;;1.30;99.90;;;;;;5034826;28;19917;-87
2020/12/11 04:19:25;;;;;;;;;;;1.30;99.90;;;;;;5034827;28;20386;-86
2020/12/11 04:21:51;;;;;;;;;;;1.30;99.90;;;;;;5034755;28;19917;-86
2020/12/11 04:24:22;;;;;;;;;;;1.40;99.90;;;;;;5035058;28;20353;-87
2020/12/11 04:26:50;;;;;;;;;;;1.40;99.90;;;;;;5031597;28;19909;-86
2020/12/11 04:29:16;;;;;;;;;;;1.40;99.90;;;;;;5024221;28;20149;-87
2020/12/11 04:31:44;;;;;;;;;;;1.30;99.90;;;;;;5022469;28;19920;-88
2020/12/11 04:34:09;;;;;;;;;;;1.30;99.90;;;;;;5028355;28;20446;-86
2020/12/11 04:36:35;;;;;;;;;;;1.30;99.90;;;;;;5034337;28;19960;-86
2020/12/11 04:39:00;;;;;;;;;;;1.20;99.90;;;;;;5034384;28;20368;-88
2020/12/11 04:41:26;;;;;;;;;;;1.40;99.90;;;;;;5033898;28;19921;-88
2020/12/11 04:43:54;;;;;;;;;;;1.30;99.90;;;;;;5033922;28;20484;-87
2020/12/11 04:46:24;;;;;;;;;;;1.30;99.90;;;;;;5033993;28;20167;-87
2020/12/11 04:48:53;;;;;;;;;;;1.20;99.90;;;;;;5034330;28;19924;-86
2020/12/11 04:51:22;;;;;;;;;;;1.20;99.90;;;;;;5033078;28;19916;-88
2020/12/11 04:53:51;;;;;;;;;;;1.20;99.90;;;;;;5034186;28;19909;-88
2020/12/11 04:56:22;;;;;;;;;;;1.10;99.90;;;;;;5034117;28;19909;-88
2020/12/11 04:58:49;;;;;;;;;;;1.10;99.90;;;;;;5033722;28;19913;-89
2020/12/11 05:01:24;;;;;;;;;;;1.10;99.90;;;;;;5034000;28;19963;-88
2020/12/11 05:03:50;;;;;;;;;;;1.10;99.90;;;;;;5034084;28;19963;-88
2020/12/11 05:06:15;;;;;;;;;;;1.00;99.90;;;;;;5033875;28;19909;-87
2020/12/11 05:08:41;;;;;;;;;;;1.00;99.90;;;;;;5033647;28;19913;-88
2020/12/11 05:11:09;;;;;;;;;;;0.90;99.90;;;;;;5033518;28;19909;-88
2020/12/11 05:13:40;;;;;;;;;;;1.00;99.90;;;;;;5033617;28;19910;-87
2020/12/11 05:16:08;;;;;;;;;;;0.90;99.90;;;;;;5033642;28;19916;-86
2020/12/11 05:18:35;;;;;;;;;;;0.90;99.90;;;;;;5033903;28;19909;-86
2020/12/11 05:21:16;;;;;;;;;;;0.90;99.90;;;;;;5033304;28;19928;-86
2020/12/11 05:23:59;;;;;;;;;;;0.80;99.90;;;;;;5033410;28;19909;-86
2020/12/11 05:26:32;;;;;;;;;;;0.80;99.90;;;;;;5033559;28;19909;-88
2020/12/11 05:28:58;;;;;;;;;;;0.80;99.90;;;;;;5033572;28;19963;-88
2020/12/11 05:31:24;;;;;;;;;;;0.70;99.90;;;;;;5033274;28;19910;-87
2020/12/11 05:34:02;;;;;;;;;;;0.70;99.90;;;;;;5033388;28;19909;-88
2020/12/11 05:36:31;;;;;;;;;;;0.70;99.90;;;;;;5033509;28;19913;-88
2020/12/11 05:38:58;;;;;;;;;;;0.70;99.90;;;;;;5033470;28;19910;-87
2020/12/11 05:41:34;;;;;;;;;;;0.80;99.90;;;;;;5032473;28;20205;-86
2020/12/11 05:44:00;;;;;;;;;;;0.80;99.90;;;;;;5033348;28;19913;-87
2020/12/11 05:46:31;;;;;;;;;;;0.80;99.90;;;;;;5019229;28;19915;-88
2020/12/11 05:49:00;;;;;;;;;;;0.80;99.90;;;;;;5013502;28;19917;-88
2020/12/11 05:51:34;;;;;;;;;;;0.80;99.90;;;;;;5012991;28;19914;-88
2020/12/11 05:54:02;;;;;;;;;;;0.70;99.90;;;;;;5013318;28;19916;-89
2020/12/11 05:56:28;;;;;;;;;;;0.70;99.90;;;;;;5013297;28;19920;-87
2020/12/11 05:58:54;;;;;;;;;;;0.70;99.90;;;;;;5013154;28;20277;-88
2020/12/11 06:01:21;;;;;;;;;;;0.70;99.90;;;;;;5012861;28;19914;-88
2020/12/11 06:03:49;;;;;;;;;;;0.70;99.90;;;;;;5016776;28;20357;-89
2020/12/11 06:06:16;;;;;;;;;;;0.60;99.90;;;;;;5017473;28;19909;-88
2020/12/11 06:08:44;;;;;;;;;;;0.60;99.90;;;;;;5017113;28;19914;-87
2020/12/11 06:11:21;;;;;;;;;;;0.60;99.90;;;;;;5017215;28;20392;-86
2020/12/11 06:13:55;;;;;;;;;;;0.60;99.90;;;;;;5017245;28;20277;-87
2020/12/11 06:16:22;;;;;;;;;;;0.50;99.90;;;;;;5017359;28;19919;-88
2020/12/11 06:18:55;;;;;;;;;;;0.50;99.90;;;;;;5018454;28;20324;-88
2020/12/11 06:21:20;;;;;;;;;;;0.60;99.90;;;;;;5017076;28;19913;-88
2020/12/11 06:23:46;;;;;;;;;;;0.50;99.90;;;;;;5016962;28;20008;-88
2020/12/11 06:26:17;;;;;;;;;;;0.50;99.90;;;;;;5016788;28;19910;-89
2020/12/11 06:28:44;;;;;;;;;;;0.50;99.90;;;;;;5017048;28;19909;-88
2020/12/11 06:31:17;;;;;;;;;;;0.60;99.90;;;;;;5016903;28;20008;-88
2020/12/11 06:33:44;;;;;;;;;;;0.50;99.90;;;;;;5016838;28;20280;-88
2020/12/11 06:36:10;;;;;;;;;;;0.50;99.90;;;;;;5017865;28;19964;-88
2020/12/11 06:38:49;;;;;;;;;;;0.50;99.90;;;;;;5016602;28;19910;-88
2020/12/11 06:41:26;;;;;;;;;;;0.60;99.90;;;;;;5016244;28;19990;-87
2020/12/11 06:43:52;;;;;;;;;;;0.50;99.90;;;;;;5016620;28;19909;-87
2020/12/11 06:46:22;;;;;;;;;;;0.50;99.90;;;;;;5016644;28;19916;-88
2020/12/11 06:49:09;;;;;;;;;;;0.50;99.90;;;;;;5016388;28;19952;-87
2020/12/11 06:51:54;;;;;;;;;;;0.50;99.90;;;;;;5016792;28;20361;-88
2020/12/11 06:54:20;;;;;;;;;;;0.60;99.90;;;;;;5016225;28;19917;-88
2020/12/11 06:56:52;;;;;;;;;;;0.60;99.90;;;;;;5016337;28;19909;-88
2020/12/11 06:59:17;;;;;;;;;;;0.60;99.90;;;;;;5016269;28;19909;-88
2020/12/11 07:01:43;;;;;;;;;;;0.60;99.90;;;;;;5016304;28;19937;-88
2020/12/11 07:04:08;;;;;;;;;;;0.60;99.90;;;;;;5016368;28;19955;-88
2020/12/11 07:06:34;;;;;;;;;;;0.60;99.90;;;;;;5016259;28;19909;-88
2020/12/11 07:09:02;;;;;;;;;;;0.60;99.90;;;;;;5016301;28;19917;-88
2020/12/11 07:11:28;;;;;;;;;;;0.60;99.90;;;;;;5015972;28;20365;-88
2020/12/11 07:13:53;;;;;;;;;;;0.60;99.90;;;;;;5015105;28;19910;-88
2020/12/11 07:16:19;;;;;;;;;;;0.60;99.90;;;;;;5016044;28;20038;-88
2020/12/11 07:18:47;;;;;;;;;;;0.60;99.90;;;;;;5016091;28;20281;-89
2020/12/11 07:21:13;;;;;;;;;;;0.60;99.90;;;;;;5015776;28;19920;-88
2020/12/11 07:23:42;;;;;;;;;;;0.60;99.90;;;;;;5016126;28;19913;-88
2020/12/11 07:26:07;;;;;;;;;;;0.70;99.90;;;;;;5015753;28;20004;-88
2020/12/11 07:28:33;;;;;;;;;;;0.70;99.90;;;;;;5016759;28;19956;-89
2020/12/11 07:31:03;;;;;;;;;;;0.70;99.90;;;;;;5016098;28;19910;-89
2020/12/11 07:33:33;;;;;;;;;;;0.70;99.90;;;;;;5016001;28;19917;-88
2020/12/11 07:35:59;;;;;;;;;;;0.70;99.90;;;;;;5016984;28;19909;-88
2020/12/11 07:38:26;;;;;;;;;;;0.70;99.90;;;;;;5015622;28;19909;-87
2020/12/11 07:40:53;;;;;;;;;;;0.70;99.90;;;;;;5015561;28;19921;-88
2020/12/11 07:43:22;;;;;;;;;;;0.70;99.90;;;;;;5015832;28;19916;-88
2020/12/11 07:45:47;;;;;;;;;;;0.80;99.90;;;;;;5016656;28;19910;-89
2020/12/11 07:48:13;;;;;;;;;;;0.80;99.90;;;;;;5015500;28;19916;-88
2020/12/11 07:50:45;;;;;;;;;;;0.80;99.90;;;;;;5015516;28;20208;-88
2020/12/11 07:53:13;;;;;;;;;;;0.80;99.90;;;;;;5015319;28;19910;-89
2020/12/11 07:55:38;;;;;;;;;;;0.80;99.90;;;;;;5015288;28;20367;-89
2020/12/11 07:58:04;;;;;;;;;;;0.70;99.90;;;;;;5015359;28;19909;-89
2020/12/11 08:00:37;;;;;;;;;;;0.80;99.90;;;;;;5016248;28;19953;-89
2020/12/11 08:03:07;;;;;;;;;;;0.90;99.90;;;;;;5015313;28;19920;-88
2020/12/11 08:05:35;;;;;;;;;;;0.90;99.90;;;;;;5015343;28;20415;-90
2020/12/11 08:08:01;;;;;;;;;;;0.80;99.90;;;;;;5014889;28;20023;-88
2020/12/11 08:10:40;;;;;;;;;;;0.80;99.90;;;;;;5015138;28;19960;-88
2020/12/11 08:13:10;;;;;;;;;;;0.90;99.90;;;;;;5022637;28;19920;-89
2020/12/11 08:15:38;;;;;;;;;;;0.90;99.90;;;;;;5023671;28;20396;-88
2020/12/11 08:18:14;;;;;;;;;;;1.00;99.90;;;;;;5024801;28;19909;-89
2020/12/11 08:20:43;;;;;;;;;;;1.00;99.90;;;;;;5020301;28;20012;-89
2020/12/11 08:23:18;;;;;;;;;;;1.10;99.90;;;;;;5022928;28;19924;-90
2020/12/11 08:25:43;;;;;;;;;;;1.10;99.90;;;;;;5024831;28;20011;-89
2020/12/11 08:28:13;;;;;;;;;;;1.10;99.90;;;;;;5025369;28;19955;-87
2020/12/11 08:30:41;;;;;;;;;;;1.20;99.90;;;;;;5024525;28;20254;-90
2020/12/11 08:33:10;;;;;;;;;;;1.20;99.90;;;;;;5022612;28;19910;-89
2020/12/11 08:35:36;;;;;;;;;;;1.20;99.90;;;;;;5024116;28;19910;-89
2020/12/11 08:38:04;;;;;;;;;;;1.20;99.90;;;;;;5023022;28;20391;-88
2020/12/11 08:40:30;;;;;;;;;;;1.30;99.90;;;;;;5030130;28;19936;-90
2020/12/11 08:45:41;;;;;;;;;;;1.40;99.90;;;;;;5029600;28;19913;-89
2020/12/11 08:50:44;;;;;;;;;;;1.40;99.90;;;;;;5024127;28;19909;-89
2020/12/11 08:53:16;;;;;;;;;;;1.50;99.90;;;;;;5023943;28;19959;-87
2020/12/11 08:55:42;;;;;;;;;;;1.50;99.90;;;;;;5024570;28;19936;-88
2020/12/11 08:58:10;;;;;;;;;;;1.50;99.90;;;;;;5024884;28;19917;-89
2020/12/11 09:00:38;;;;;;;;;;;1.50;99.90;;;;;;5021866;28;20008;-89
2020/12/11 09:03:04;;;;;;;;;;;1.50;99.90;;;;;;5021857;28;19920;-89
2020/12/11 09:05:30;;;;;;;;;;;1.60;99.90;;;;;;5023393;28;19909;-90
2020/12/11 09:07:56;;;;;;;;;;;1.70;99.90;;;;;;5025013;28;19917;-89
2020/12/11 09:10:24;;;;;;;;;;;1.80;99.90;;;;;;5021827;28;19985;-88
2020/12/11 09:12:51;;;;;;;;;;;1.80;99.90;;;;;;5025699;28;19920;-89
2020/12/11 09:15:20;;;;;;;;;;;1.80;99.90;;;;;;5022345;28;19916;-89
2020/12/11 09:17:46;;;;;;;;;;;1.80;99.90;;;;;;5025009;28;20349;-88
2020/12/11 09:20:11;;;;;;;;;;;1.80;99.90;;;;;;5031727;28;19921;-88
2020/12/11 09:22:42;;;;;;;;;;;1.80;99.90;;;;;;5033431;28;19967;-89
2020/12/11 09:25:08;;;;;;;;;;;1.90;99.90;;;;;;5030503;28;19965;-89
2020/12/11 09:27:41;;;;;;;;;;;1.90;99.90;;;;;;5021689;28;19920;-88
2020/12/11 09:30:26;;;;;;;;;;;1.90;99.90;;;;;;5022828;28;20011;-88
2020/12/11 09:33:07;;;;;;;;;;;2.00;99.90;;;;;;5025320;28;19988;-87
2020/12/11 09:35:33;;;;;;;;;;;2.00;99.90;;;;;;5024073;28;20436;-89
2020/12/11 09:37:58;;;;;;;;;;;2.00;99.90;;;;;;5020892;28;20004;-88
2020/12/11 09:40:46;;;;;;;;;;;2.00;99.90;;;;;;5016044;28;20016;-89
2020/12/11 09:46:13;;;;;;;;;;;2.10;99.90;;;;;;5014720;28;19964;-88
2020/12/11 09:48:43;;;;;;;;;;;2.10;99.90;;;;;;5029006;28;19967;-87
2020/12/11 09:51:36;;;;;;;;;;;2.10;99.90;;;;;;5033171;28;20380;-86
2020/12/11 09:56:32;;;;;;;;;;;2.30;99.90;;;;;;5034042;28;20268;-89
2020/12/11 09:59:01;;;;;;;;;;;2.30;99.90;;;;;;5033259;28;19920;-88
2020/12/11 10:04:13;;;;;;;;;;;2.30;99.90;;;;;;5003037;28;20008;-88
2020/12/11 10:06:39;;;;;;;;;;;2.40;99.90;;;;;;5033070;28;20137;-88
2020/12/11 10:09:05;;;;;;;;;;;2.40;99.90;;;;;;5033118;28;20381;-87
2020/12/11 10:11:30;;;;;;;;;;;2.50;99.90;;;;;;5023301;28;20250;-87
2020/12/11 10:16:39;;;;;;;;;;;2.50;99.90;;;;;;5030010;28;19920;-89
2020/12/11 10:19:07;;;;;;;;;;;2.60;99.90;;;;;;5029084;28;20003;-88
2020/12/11 10:21:33;;;;;;;;;;;2.60;99.90;;;;;;5028196;28;19925;-88
2020/12/11 10:23:59;;;;;;;;;;;2.60;99.90;;;;;;5029727;28;19958;-87
2020/12/11 10:26:24;;;;;;;;;;;2.60;99.90;;;;;;5039984;28;19913;-88
2020/12/11 10:28:50;;;;;;;;;;;2.50;99.90;;;;;;5026415;28;19967;-88
2020/12/11 10:31:16;;;;;;;;;;;2.50;99.90;;;;;;5029150;28;19913;-87
2020/12/11 10:33:45;;;;;;;;;;;2.50;99.90;;;;;;5013745;28;19936;-87
2020/12/11 10:36:13;;;;;;;;;;;2.50;99.90;;;;;;5013633;28;19917;-87
2020/12/11 10:38:41;;;;;;;;;;;2.60;99.90;;;;;;5031537;28;19913;-87
2020/12/11 10:41:07;;;;;;;;;;;2.60;99.90;;;;;;5031154;28;19971;-88
2020/12/11 10:43:32;;;;;;;;;;;2.70;99.90;;;;;;5032568;28;19909;-88
2020/12/11 10:45:58;;;;;;;;;;;2.70;99.90;;;;;;5032256;28;19945;-88
2020/12/11 10:48:23;;;;;;;;;;;2.80;99.90;;;;;;5032598;28;19953;-87
2020/12/11 10:50:49;;;;;;;;;;;2.80;99.90;;;;;;5035479;28;19995;-88
2020/12/11 10:53:15;;;;;;;;;;;2.90;99.90;;;;;;5036155;28;19916;-87
2020/12/11 10:55:40;;;;;;;;;;;2.90;99.90;;;;;;5035724;28;20277;-87
2020/12/11 10:58:06;;;;;;;;;;;2.90;99.90;;;;;;5036239;28;19909;-87
2020/12/11 11:00:31;;;;;;;;;;;2.90;99.90;;;;;;5035587;28;19963;-87
2020/12/11 11:02:59;;;;;;;;;;;2.90;99.90;;;;;;5035646;28;19949;-87
2020/12/11 11:05:25;;;;;;;;;;;2.90;99.90;;;;;;5035593;28;19916;-87
2020/12/11 11:07:51;;;;;;;;;;;2.90;99.90;;;;;;5035573;28;20042;-88
2020/12/11 11:10:28;;;;;;;;;;;2.90;99.90;;;;;;5035701;28;19909;-87
2020/12/11 11:13:10;;;;;;;;;;;3.00;99.90;;;;;;5035439;28;19924;-87
2020/12/11 11:15:51;;;;;;;;;;;3.00;99.90;;;;;;5035492;28;19910;-87
2020/12/11 11:21:32;;;;;;;;;;;3.00;99.90;;;;;;5036724;28;20290;-87
2020/12/11 11:29:46;;;;;;;;;;;3.10;99.90;;;;;;5033287;28;19909;-87
2020/12/11 11:32:12;;;;;;;;;;;3.20;99.90;;;;;;5035155;28;20074;-87
2020/12/11 11:34:40;;;;;;;;;;;3.20;99.90;;;;;;5035345;28;19913;-87
2020/12/11 11:37:05;;;;;;;;;;;3.40;99.90;;;;;;5035213;28;19916;-87
2020/12/11 11:39:31;;;;;;;;;;;3.40;99.90;;;;;;5035018;28;19913;-88
2020/12/11 11:41:56;;;;;;;;;;;3.40;99.90;;;;;;5034891;28;19921;-88
2020/12/11 11:47:09;;;;;;;;;;;3.40;99.90;;;;;;5036242;28;20395;-88
2020/12/11 11:49:40;;;;;;;;;;;3.40;99.90;;;;;;5035137;28;19913;-88
2020/12/11 11:55:04;;;;;;;;;;;3.40;99.90;;;;;;5002405;28;19993;-87
2020/12/11 11:57:30;;;;;;;;;;;3.40;99.90;;;;;;5034683;28;19916;-88
2020/12/11 11:59:56;;;;;;;;;;;3.40;99.90;;;;;;5034502;28;19916;-88
2020/12/11 12:02:24;;;;;;;;;;;3.40;99.90;;;;;;5034666;28;19913;-87
2020/12/11 12:04:49;;;;;;;;;;;3.50;99.90;;;;;;5035006;28;19909;-88
2020/12/11 12:07:17;;;;;;;;;;;3.50;99.90;;;;;;5034651;28;19920;-87
2020/12/11 12:09:43;;;;;;;;;;;3.50;99.90;;;;;;5034493;28;19956;-89
2020/12/11 12:12:08;;;;;;;;;;;3.50;99.90;;;;;;5034688;28;19909;-87
2020/12/11 12:14:34;;;;;;;;;;;3.50;99.90;;;;;;5034683;28;19909;-87
2020/12/11 12:17:03;;;;;;;;;;;3.50;99.90;;;;;;5034505;28;19916;-89
2020/12/11 12:19:42;;;;;;;;;;;3.60;99.90;;;;;;5034267;28;19913;-88
2020/12/11 12:29:52;;;;;;;;;;;3.60;99.90;;;;;;5035461;28;20076;-88
2020/12/11 12:32:19;;;;;;;;;;;3.70;99.90;;;;;;5034030;28;19909;-87
2020/12/11 12:35:19;;;;;;;;;;;3.70;99.90;;;;;;5033766;28;19909;-88
2020/12/11 12:37:43;;;;;;;;;;;3.70;99.90;;;;;;5034941;28;20159;-88
2020/12/11 12:45:54;;;;;;;;;;;3.80;99.90;;;;;;4974181;28;20350;-88
2020/12/11 12:48:19;;;;;;;;;;;3.80;99.90;;;;;;5020904;28;19955;-87
2020/12/11 12:50:50;;;;;;;;;;;3.80;99.90;;;;;;5033689;28;19909;-86
2020/12/11 12:53:18;;;;;;;;;;;3.80;99.90;;;;;;5033656;28;19916;-88
2020/12/11 12:56:31;;;;;;;;;;;3.80;99.90;;;;;;5033307;28;19909;-88
2020/12/11 12:58:34;;;;;;;;;;;3.80;99.90;;;;;;5034415;28;19913;-87
2020/12/11 13:01:08;;;;;;;;;;;3.80;99.90;;;;;;5033510;28;19913;-86
2020/12/11 13:06:24;;;;;;;;;;;3.80;99.90;;;;;;5034696;28;19991;-86
2020/12/11 13:08:49;;;;;;;;;;;3.80;99.90;;;;;;5033851;28;19917;-86
2020/12/11 13:11:15;;;;;;;;;;;3.90;99.90;;;;;;5033299;28;19911;-88
2020/12/11 13:13:43;;;;;;;;;;;3.90;99.90;;;;;;5032931;28;20044;-87
2020/12/11 13:16:11;;;;;;;;;;;3.90;99.90;;;;;;5033614;28;20035;-88
2020/12/11 13:18:41;;;;;;;;;;;3.80;99.90;;;;;;5033458;28;20368;-87
2020/12/11 13:21:12;;;;;;;;;;;3.80;99.90;;;;;;5034551;28;19952;-89
2020/12/11 13:26:47;;;;;;;;;;;3.80;99.90;;;;;;5034532;28;19916;-87
2020/12/11 13:29:08;;;;;;;;;;;3.80;99.90;;;;;;5033302;28;20273;-87
2020/12/11 13:31:36;;;;;;;;;;;3.80;99.90;;;;;;5033143;28;19909;-87
2020/12/11 13:34:02;;;;;;;;;;;3.80;99.90;;;;;;5033004;28;19909;-88
2020/12/11 13:36:27;;;;;;;;;;;3.90;99.90;;;;;;5032942;28;19916;-87
2020/12/11 13:38:58;;;;;;;;;;;3.90;99.90;;;;;;5032984;28;20390;-87
2020/12/11 13:41:23;;;;;;;;;;;3.80;99.90;;;;;;5032877;28;20000;-86
2020/12/11 13:43:49;;;;;;;;;;;3.90;99.90;;;;;;5032807;28;19949;-86
2020/12/11 13:46:15;;;;;;;;;;;3.90;99.90;;;;;;5034161;28;19909;-87
2020/12/11 13:48:40;;;;;;;;;;;3.90;99.90;;;;;;5033139;28;19909;-87
2020/12/11 13:51:08;;;;;;;;;;;3.90;99.90;;;;;;5032886;28;20016;-86
2020/12/11 13:53:34;;;;;;;;;;;3.90;99.90;;;;;;5032771;28;20415;-85
2020/12/11 13:56:02;;;;;;;;;;;3.90;99.90;;;;;;5032777;28;19913;-87
2020/12/11 13:58:30;;;;;;;;;;;3.90;99.90;;;;;;5032518;28;19909;-87
2020/12/11 14:00:56;;;;;;;;;;;3.90;99.90;;;;;;5032529;28;19913;-86
2020/12/11 14:03:21;;;;;;;;;;;3.90;99.90;;;;;;5032689;28;19925;-88
2020/12/11 14:05:49;;;;;;;;;;;3.90;99.90;;;;;;5032705;28;19916;-88
2020/12/11 14:08:15;;;;;;;;;;;3.90;99.90;;;;;;5032637;28;20410;-87
2020/12/11 14:10:41;;;;;;;;;;;3.90;99.90;;;;;;5032355;28;20153;-87
2020/12/11 14:13:09;;;;;;;;;;;3.90;99.90;;;;;;5032883;28;19909;-88
2020/12/11 14:15:37;;;;;;;;;;;3.90;99.90;;;;;;5032648;28;19999;-87
2020/12/11 14:18:12;;;;;;;;;;;3.90;99.90;;;;;;5032688;28;19915;-88
2020/12/11 14:21:02;;;;;;;;;;;3.90;99.90;;;;;;5033693;28;20016;-88
2020/12/11 14:23:31;;;;;;;;;;;3.90;99.90;;;;;;5033913;28;19967;-88
2020/12/11 14:25:57;;;;;;;;;;;3.90;99.90;;;;;;5036654;28;19909;-88
2020/12/11 14:28:23;;;;;;;;;;;3.90;99.90;;;;;;5036572;28;19909;-88
2020/12/11 14:30:48;;;;;;;;;;;4.00;99.90;;;;;;5036343;28;19964;-89
2020/12/11 14:33:16;;;;;;;;;;;4.00;99.90;;;;;;5036399;28;19909;-87
2020/12/11 14:35:42;;;;;;;;;;;4.00;99.90;;;;;;5036310;28;19916;-87
2020/12/11 14:38:18;;;;;;;;;;;4.00;99.90;;;;;;5036192;28;20277;-86
2020/12/11 14:40:43;;;;;;;;;;;4.00;99.90;;;;;;5035791;28;19928;-88
2020/12/11 14:43:16;;;;;;;;;;;4.00;99.90;;;;;;5035985;28;19909;-87
2020/12/11 14:45:44;;;;;;;;;;;4.10;99.90;;;;;;5036168;28;19909;-87
2020/12/11 14:48:10;;;;;;;;;;;4.10;99.90;;;;;;5035903;28;19909;-88
2020/12/11 14:50:36;;;;;;;;;;;4.20;99.90;;;;;;5036048;28;20281;-88
2020/12/11 14:53:03;;;;;;;;;;;4.20;99.90;;;;;;5036249;28;19920;-88
2020/12/11 14:55:29;;;;;;;;;;;4.10;99.90;;;;;;5036096;28;19916;-88
2020/12/11 14:57:54;;;;;;;;;;;4.20;99.90;;;;;;5036229;28;19913;-87
2020/12/11 15:00:20;;;;;;;;;;;4.20;99.90;;;;;;5035796;28;20361;-87
2020/12/11 15:02:48;;;;;;;;;;;4.20;99.90;;;;;;5035913;28;20423;-87
2020/12/11 15:05:16;;;;;;;;;;;4.20;99.90;;;;;;5035869;28;20357;-88
2020/12/11 15:07:44;;;;;;;;;;;4.20;99.90;;;;;;5035583;28;19910;-88
2020/12/11 15:10:10;;;;;;;;;;;4.20;99.90;;;;;;5035837;28;19963;-87
2020/12/11 15:12:35;;;;;;;;;;;4.20;99.90;;;;;;5035445;28;20009;-88
2020/12/11 15:15:03;;;;;;;;;;;4.20;99.90;;;;;;5035447;28;19913;-88
2020/12/11 15:17:31;;;;;;;;;;;4.30;99.90;;;;;;5035549;28;19913;-87
2020/12/11 15:19:59;;;;;;;;;;;4.30;99.90;;;;;;5035697;28;19913;-87
2020/12/11 15:22:27;;;;;;;;;;;4.30;99.90;;;;;;5035694;28;19932;-88
2020/12/11 15:24:55;;;;;;;;;;;4.20;99.90;;;;;;5035767;28;19909;-87
2020/12/11 15:27:21;;;;;;;;;;;4.10;99.90;;;;;;5035752;28;20038;-88